createdAt,value
2022-11-05T00:00:35.534Z,22.73
2022-11-05T00:03:20.890Z,25.60
2022-11-05T00:06:08.664Z,27.47
2022-11-05T00:08:54.092Z,25.73
2022-11-05T00:11:40.674Z,24.13
2022-11-05T00:14:25.689Z,22.83
2022-11-05T00:16:52.132Z,21.27
2022-11-05T00:19:18.597Z,22.97
2022-11-05T00:22:03.581Z,24.23
2022-11-05T00:24:48.686Z,25.30
2022-11-05T00:27:15.183Z,23.20
2022-11-05T00:29:41.609Z,24.07
2022-11-05T00:32:08.124Z,22.60
2022-11-05T00:34:34.690Z,20.90
2022-11-05T00:37:01.268Z,21.60
2022-11-05T00:39:27.836Z,25.53
2022-11-05T00:42:13.256Z,26.87
2022-11-05T00:44:57.968Z,22.73
2022-11-05T00:47:43.421Z,22.80
2022-11-05T00:50:10.680Z,23.67
2022-11-05T00:52:56.332Z,23.43
2022-11-05T00:55:28.993Z,26.47
2022-11-05T00:57:56.907Z,25.97
2022-11-05T01:00:25.235Z,23.83
2022-11-05T01:02:52.226Z,25.40
2022-11-05T01:05:18.939Z,24.33
2022-11-05T01:07:45.676Z,23.50
2022-11-05T01:10:12.163Z,23.30
2022-11-05T01:12:38.681Z,22.80
2022-11-05T01:15:06.219Z,25.50
2022-11-05T01:17:32.706Z,25.77
2022-11-05T01:19:59.561Z,25.43
2022-11-05T01:22:26.067Z,24.63
2022-11-05T01:24:52.674Z,26.03
2022-11-05T01:27:19.285Z,22.03
2022-11-05T01:29:45.733Z,24.20
2022-11-05T01:32:12.211Z,21.80
2022-11-05T01:34:38.681Z,21.60
2022-11-05T01:37:05.172Z,21.23
2022-11-05T01:39:31.746Z,24.43
2022-11-05T01:41:58.959Z,22.03
2022-11-05T01:44:53.397Z,27.37
2022-11-05T01:47:25.957Z,20.10
2022-11-05T01:49:53.088Z,19.43
2022-11-05T01:52:21.143Z,21.10
2022-11-05T01:54:47.950Z,20.87
2022-11-05T01:57:14.823Z,24.10
2022-11-05T01:59:47.240Z,19.67
2022-11-05T02:02:14.088Z,23.40
2022-11-05T02:04:48.712Z,19.40
2022-11-05T02:07:15.617Z,22.17
2022-11-05T02:09:51.285Z,20.87
2022-11-05T02:12:18.504Z,24.50
2022-11-05T02:14:44.966Z,29.07
2022-11-05T02:17:22.867Z,22.83
2022-11-05T02:20:11.322Z,22.87
2022-11-05T02:23:06.745Z,18.47
2022-11-05T02:26:20.296Z,20.17
2022-11-05T02:29:22.252Z,20.23
2022-11-05T02:32:13.864Z,21.17
2022-11-05T02:35:01.778Z,18.17
2022-11-05T02:37:40.847Z,17.80
2022-11-05T02:40:19.501Z,19.87
2022-11-05T02:43:02.837Z,19.43
2022-11-05T02:46:02.688Z,19.67
2022-11-05T02:48:49.072Z,18.07
2022-11-05T02:51:31.893Z,17.80
2022-11-05T02:54:16.227Z,17.40
2022-11-05T02:56:48.418Z,23.00
2022-11-05T02:59:14.911Z,18.07
2022-11-05T03:01:43.976Z,16.87
2022-11-05T03:04:13.322Z,16.50
2022-11-05T03:06:55.138Z,16.43
2022-11-05T03:09:33.971Z,15.23
2022-11-05T03:12:22.039Z,16.40
2022-11-05T03:15:16.507Z,17.73
2022-11-05T03:17:48.609Z,17.80
2022-11-05T03:20:19.243Z,23.13
2022-11-05T03:22:59.690Z,18.80
2022-11-05T03:25:29.123Z,16.53
2022-11-05T03:28:05.315Z,16.90
2022-11-05T03:30:33.775Z,16.13
2022-11-05T03:33:13.590Z,16.63
2022-11-05T03:35:46.543Z,19.60
2022-11-05T03:38:19.670Z,20.17
2022-11-05T03:40:49.456Z,18.00
2022-11-05T03:43:17.551Z,16.80
2022-11-05T03:45:50.473Z,16.87
2022-11-05T03:48:19.328Z,15.73
2022-11-05T03:51:12.642Z,18.97
2022-11-05T03:54:05.626Z,17.23
2022-11-05T03:56:35.005Z,14.60
2022-11-05T03:59:04.488Z,13.80
2022-11-05T04:01:31.883Z,15.33
2022-11-05T04:03:58.743Z,17.73
2022-11-05T04:06:43.839Z,14.80
2022-11-05T04:09:29.218Z,13.90
2022-11-05T04:12:14.153Z,14.07
2022-11-05T04:14:40.576Z,17.43
2022-11-05T04:17:07.128Z,12.87
2022-11-05T04:19:53.201Z,13.17
2022-11-05T04:22:38.579Z,18.03
2022-11-05T04:25:05.200Z,15.03
2022-11-05T04:27:31.921Z,13.33
2022-11-05T04:30:16.739Z,16.87
2022-11-05T04:32:43.195Z,13.33
2022-11-05T04:35:09.620Z,13.97
2022-11-05T04:37:36.089Z,18.13
2022-11-05T04:40:02.517Z,16.20
2022-11-05T04:42:29.400Z,12.13
2022-11-05T04:44:55.855Z,13.43
2022-11-05T04:47:22.410Z,15.50
2022-11-05T04:49:48.932Z,14.27
2022-11-05T04:52:15.515Z,14.90
2022-11-05T04:54:41.950Z,11.47
2022-11-05T04:57:08.540Z,13.07
2022-11-05T04:59:35.036Z,13.77
2022-11-05T05:02:02.531Z,18.40
2022-11-05T05:04:29.232Z,13.07
2022-11-05T05:06:55.746Z,14.03
2022-11-05T05:09:22.417Z,12.57
2022-11-05T05:11:48.819Z,13.60
2022-11-05T05:14:15.298Z,12.47
2022-11-05T05:16:41.758Z,14.20
2022-11-05T05:19:08.372Z,11.13
2022-11-05T05:21:41.091Z,14.93
2022-11-05T05:24:16.164Z,11.63
2022-11-05T05:26:45.299Z,16.90
2022-11-05T05:29:12.286Z,12.47
2022-11-05T05:31:38.933Z,12.43
2022-11-05T05:34:06.542Z,13.00
2022-11-05T05:36:33.582Z,14.67
2022-11-05T05:39:00.258Z,10.67
2022-11-05T05:41:27.939Z,11.97
2022-11-05T05:43:54.489Z,12.83
2022-11-05T05:46:20.930Z,10.60
2022-11-05T05:48:51.926Z,12.57
2022-11-05T05:51:18.983Z,9.47
2022-11-05T05:53:45.568Z,12.60
2022-11-05T05:56:14.868Z,13.30
2022-11-05T05:58:41.796Z,11.17
2022-11-05T06:01:17.420Z,9.27
2022-11-05T06:03:45.607Z,11.13
2022-11-05T06:06:14.008Z,10.77
2022-11-05T06:08:40.992Z,12.77
2022-11-05T06:11:08.519Z,14.00
2022-11-05T06:13:36.467Z,12.33
2022-11-05T06:16:05.051Z,11.23
2022-11-05T06:18:32.425Z,13.73
2022-11-05T06:21:10.112Z,14.07
2022-11-05T06:23:38.089Z,14.97
2022-11-05T06:26:07.534Z,16.50
2022-11-05T06:28:34.744Z,18.83
2022-11-05T06:31:02.282Z,15.33
2022-11-05T06:33:29.404Z,15.40
2022-11-05T06:35:59.469Z,17.40
2022-11-05T06:38:26.040Z,15.90
2022-11-05T06:40:52.536Z,13.20
2022-11-05T06:43:19.007Z,15.70
2022-11-05T06:45:45.480Z,13.80
2022-11-05T06:48:11.943Z,15.90
2022-11-05T06:50:38.430Z,17.27
2022-11-05T06:53:05.426Z,19.20
2022-11-05T06:55:32.188Z,18.50
2022-11-05T06:57:59.028Z,15.00
2022-11-05T07:00:25.855Z,14.17
2022-11-05T07:02:52.317Z,17.33
2022-11-05T07:05:18.774Z,15.93
2022-11-05T07:07:45.779Z,18.77
2022-11-05T07:10:14.939Z,18.87
2022-11-05T07:12:41.807Z,17.10
2022-11-05T07:15:09.478Z,18.53
2022-11-05T07:17:35.988Z,15.43
2022-11-05T07:20:03.766Z,15.90
2022-11-05T07:22:30.425Z,16.40
2022-11-05T07:24:57.057Z,14.43
2022-11-05T07:27:23.565Z,14.10
2022-11-05T07:29:50.031Z,17.63
2022-11-05T07:32:16.524Z,21.53
2022-11-05T07:34:43.039Z,18.57
2022-11-05T07:37:09.650Z,20.37
2022-11-05T07:39:36.104Z,19.27
2022-11-05T07:42:02.760Z,19.50
2022-11-05T07:44:33.062Z,21.50
2022-11-05T07:46:59.773Z,18.40
2022-11-05T07:49:26.255Z,17.27
2022-11-05T07:51:53.579Z,22.03
2022-11-05T07:54:20.071Z,22.10
2022-11-05T07:56:47.938Z,23.13
2022-11-05T07:59:14.375Z,22.53
2022-11-05T08:01:41.046Z,24.13
2022-11-05T08:04:07.568Z,22.43
2022-11-05T08:06:34.104Z,19.77
2022-11-05T08:09:00.903Z,25.17
2022-11-05T08:11:27.863Z,22.93
2022-11-05T08:13:54.522Z,22.17
2022-11-05T08:16:20.963Z,21.20
2022-11-05T08:18:48.252Z,22.87
2022-11-05T08:21:14.853Z,24.47
2022-11-05T08:23:42.846Z,25.33
2022-11-05T08:26:09.989Z,26.53
2022-11-05T08:28:36.424Z,21.20
2022-11-05T08:31:02.915Z,19.73
2022-11-05T08:33:31.416Z,23.90
2022-11-05T08:36:03.334Z,25.43
2022-11-05T08:38:30.528Z,20.70
2022-11-05T08:40:58.659Z,25.57
2022-11-05T08:43:25.421Z,24.90
2022-11-05T08:45:52.063Z,22.57
2022-11-05T08:48:19.483Z,21.13
2022-11-05T08:50:47.751Z,24.77
2022-11-05T08:53:15.462Z,22.50
2022-11-05T08:55:43.807Z,23.47
2022-11-05T08:58:15.065Z,22.73
2022-11-05T09:00:42.204Z,25.40
2022-11-05T09:03:10.521Z,24.17
2022-11-05T09:05:39.622Z,21.27
2022-11-05T09:08:18.483Z,22.23
2022-11-05T09:10:46.472Z,25.10
2022-11-05T09:13:18.384Z,23.27
2022-11-05T09:15:47.656Z,19.70
2022-11-05T09:18:15.096Z,21.13
2022-11-05T09:20:42.249Z,20.23
2022-11-05T09:23:11.102Z,24.10
2022-11-05T09:25:37.773Z,18.87
2022-11-05T09:28:18.029Z,18.90
2022-11-05T09:30:48.250Z,18.97
2022-11-05T09:33:16.172Z,22.10
2022-11-05T09:35:42.763Z,21.73
2022-11-05T09:38:09.845Z,19.97
2022-11-05T09:40:44.759Z,18.17
2022-11-05T09:43:19.659Z,20.10
2022-11-05T09:45:51.240Z,17.77
2022-11-05T09:48:22.019Z,19.10
2022-11-05T09:50:48.630Z,18.43
2022-11-05T09:53:19.039Z,15.93
2022-11-05T09:55:49.140Z,18.33
2022-11-05T09:58:28.519Z,15.27
2022-11-05T10:00:57.233Z,13.17
2022-11-05T10:03:26.220Z,13.00
2022-11-05T10:05:54.448Z,15.03
2022-11-05T10:08:25.710Z,15.50
2022-11-05T10:11:03.629Z,14.13
2022-11-05T10:13:50.541Z,14.13
2022-11-05T10:16:27.550Z,14.30
2022-11-05T10:19:06.060Z,13.37
2022-11-05T10:22:04.139Z,13.77
2022-11-05T10:24:20.999Z,13.37
2022-11-05T10:26:50.497Z,13.90
2022-11-05T10:29:25.573Z,14.03
2022-11-05T10:31:54.362Z,16.57
2022-11-05T10:34:23.776Z,17.47
2022-11-05T10:36:50.261Z,15.87
2022-11-05T10:39:18.702Z,12.00
2022-11-05T10:42:04.023Z,14.77
2022-11-05T10:44:39.826Z,13.77
2022-11-05T10:47:25.639Z,13.83
2022-11-05T10:50:05.068Z,13.33
2022-11-05T10:52:34.513Z,13.67
2022-11-05T10:55:04.905Z,15.63
2022-11-05T10:57:38.252Z,13.73
2022-11-05T11:00:17.902Z,17.47
2022-11-05T11:02:49.189Z,18.90
2022-11-05T11:05:27.112Z,15.20
2022-11-05T11:08:07.726Z,15.60
2022-11-05T11:11:02.432Z,13.17
2022-11-05T11:13:50.536Z,21.80
2022-11-05T11:16:22.365Z,14.53
2022-11-05T11:19:03.237Z,16.20
2022-11-05T11:21:31.736Z,18.40
2022-11-05T11:24:06.957Z,16.40
2022-11-05T11:26:40.229Z,16.17
2022-11-05T11:29:12.769Z,18.33
2022-11-05T11:31:40.358Z,17.23
2022-11-05T11:34:28.846Z,20.37
2022-11-05T11:37:12.852Z,26.73
2022-11-05T11:39:47.151Z,22.10
2022-11-05T11:42:27.328Z,19.30
2022-11-05T11:44:54.309Z,18.57
2022-11-05T11:47:22.233Z,21.53
2022-11-05T11:50:00.672Z,23.73
2022-11-05T11:52:35.870Z,19.23
2022-11-05T11:55:11.675Z,21.57
2022-11-05T11:57:50.065Z,19.73
2022-11-05T12:00:18.583Z,22.10
2022-11-05T12:03:20.367Z,23.50
2022-11-05T12:06:06.137Z,22.30
2022-11-05T12:09:05.182Z,21.17
2022-11-05T12:12:03.141Z,21.17
2022-11-05T12:14:58.059Z,20.37
2022-11-05T12:17:46.396Z,22.17
2022-11-05T12:20:32.027Z,22.57
2022-11-05T12:23:12.717Z,21.80
2022-11-05T12:25:48.831Z,23.20
2022-11-05T12:29:17.378Z,20.77
2022-11-05T12:31:52.531Z,19.60
2022-11-05T12:34:37.453Z,21.97
2022-11-05T12:37:34.716Z,18.73
2022-11-05T12:40:19.336Z,17.60
2022-11-05T12:43:09.065Z,18.63
2022-11-05T12:45:51.150Z,17.53
2022-11-05T12:48:39.296Z,17.87
2022-11-05T12:51:27.386Z,19.77
2022-11-05T12:54:04.814Z,19.73
2022-11-05T12:56:38.111Z,14.97
2022-11-05T12:59:36.114Z,18.50
2022-11-05T13:02:36.010Z,16.80
2022-11-05T13:05:13.943Z,18.30
2022-11-05T13:07:53.223Z,14.20
2022-11-05T13:10:35.183Z,15.70
2022-11-05T13:13:12.152Z,17.23
2022-11-05T13:15:49.523Z,15.53
2022-11-05T13:18:24.084Z,15.33
2022-11-05T13:20:53.925Z,15.33
2022-11-05T13:23:29.817Z,15.70
2022-11-05T13:26:02.703Z,16.70
2022-11-05T13:28:35.344Z,12.20
2022-11-05T13:31:06.406Z,14.70
2022-11-05T13:33:36.450Z,14.00
2022-11-05T13:36:33.239Z,11.50
2022-11-05T13:39:13.740Z,12.97
2022-11-05T13:42:06.057Z,11.27
2022-11-05T13:45:02.351Z,10.50
2022-11-05T13:47:35.026Z,11.70
2022-11-05T13:50:40.792Z,10.53
2022-11-05T13:53:28.849Z,10.70
2022-11-05T13:56:33.538Z,9.70
2022-11-05T13:59:18.569Z,8.30
2022-11-05T14:02:18.651Z,9.67
2022-11-05T14:04:49.144Z,9.13
2022-11-05T14:07:23.750Z,8.37
2022-11-05T14:09:57.615Z,9.77
2022-11-05T14:12:29.385Z,9.80
2022-11-05T14:15:09.339Z,10.77
2022-11-05T14:17:58.000Z,8.70
2022-11-05T14:20:30.748Z,9.70
2022-11-05T14:23:25.376Z,8.50
2022-11-05T14:25:55.851Z,11.00
2022-11-05T14:28:28.285Z,6.57
2022-11-05T14:30:55.164Z,10.50
2022-11-05T14:33:24.535Z,8.47
2022-11-05T14:36:14.331Z,10.57
2022-11-05T14:38:52.141Z,8.77
2022-11-05T14:41:20.278Z,10.17
2022-11-05T14:43:58.816Z,9.60
2022-11-05T14:46:39.405Z,10.17
2022-11-05T14:49:09.702Z,8.97
2022-11-05T14:51:39.885Z,10.20
2022-11-05T14:54:24.845Z,9.50
2022-11-05T14:56:56.495Z,8.87
2022-11-05T14:59:29.070Z,6.93
2022-11-05T15:02:17.789Z,6.93
2022-11-05T15:04:45.586Z,8.17
2022-11-05T15:07:31.772Z,8.73
2022-11-05T15:10:14.083Z,9.33
2022-11-05T15:12:52.611Z,11.57
2022-11-05T15:15:23.644Z,10.27
2022-11-05T15:18:00.676Z,11.17
2022-11-05T15:20:39.950Z,9.37
2022-11-05T15:23:12.739Z,9.90
2022-11-05T15:25:53.240Z,8.00
2022-11-05T15:28:27.344Z,9.63
2022-11-05T15:31:14.438Z,9.70
2022-11-05T15:33:42.322Z,7.27
2022-11-05T15:36:31.260Z,6.83
2022-11-05T15:39:28.003Z,6.83
2022-11-05T15:41:46.784Z,6.83
2022-11-05T15:44:37.876Z,9.00
2022-11-05T15:47:26.221Z,11.17
2022-11-05T15:50:14.973Z,10.33
2022-11-05T15:52:53.766Z,8.93
2022-11-05T15:55:20.357Z,13.27
2022-11-05T15:57:56.973Z,10.90
2022-11-05T16:00:28.549Z,9.50
2022-11-05T16:03:17.556Z,7.93
2022-11-05T16:05:46.294Z,8.40
2022-11-05T16:08:20.637Z,10.37
2022-11-05T16:10:55.645Z,10.13
2022-11-05T16:13:33.728Z,8.33
2022-11-05T16:16:03.365Z,9.07
2022-11-05T16:18:40.414Z,10.57
2022-11-05T16:21:08.409Z,9.07
2022-11-05T16:23:43.245Z,9.17
2022-11-05T16:27:01.798Z,10.10
2022-11-05T16:29:31.185Z,10.17
2022-11-05T16:32:00.257Z,9.90
2022-11-05T16:34:35.760Z,8.70
2022-11-05T16:37:03.255Z,8.67
2022-11-05T16:39:29.932Z,11.20
2022-11-05T16:41:56.387Z,8.70
2022-11-05T16:44:23.018Z,10.33
2022-11-05T16:46:50.327Z,11.20
2022-11-05T16:49:17.426Z,10.60
2022-11-05T16:51:44.061Z,10.20
2022-11-05T16:54:10.723Z,10.53
2022-11-05T16:56:37.238Z,8.17
2022-11-05T16:59:04.366Z,10.10
2022-11-05T17:01:31.933Z,10.17
2022-11-05T17:03:59.200Z,10.27
2022-11-05T17:06:25.773Z,13.57
2022-11-05T17:08:52.225Z,14.67
2022-11-05T17:11:20.666Z,13.73
2022-11-05T17:13:47.559Z,13.57
2022-11-05T17:16:17.372Z,11.83
2022-11-05T17:18:44.364Z,11.03
2022-11-05T17:21:11.173Z,10.60
2022-11-05T17:23:37.888Z,10.27
2022-11-05T17:26:08.027Z,11.97
2022-11-05T17:28:35.196Z,10.70
2022-11-05T17:31:04.463Z,11.23
2022-11-05T17:33:31.599Z,13.83
2022-11-05T17:35:58.211Z,10.53
2022-11-05T17:38:25.945Z,11.37
2022-11-05T17:40:53.317Z,12.40
2022-11-05T17:43:20.283Z,10.53
2022-11-05T17:45:49.468Z,10.43
2022-11-05T17:48:16.931Z,12.40
2022-11-05T17:50:45.560Z,15.13
2022-11-05T17:53:13.066Z,14.43
2022-11-05T17:55:41.573Z,10.67
2022-11-05T17:58:08.385Z,10.83
2022-11-05T18:00:35.849Z,12.47
2022-11-05T18:03:02.513Z,11.67
2022-11-05T18:05:30.902Z,10.80
2022-11-05T18:07:57.833Z,12.37
2022-11-05T18:10:25.224Z,12.53
2022-11-05T18:12:52.114Z,14.53
2022-11-05T18:15:18.616Z,12.83
2022-11-05T18:17:46.307Z,13.97
2022-11-05T18:20:18.948Z,11.27
2022-11-05T18:22:48.053Z,7.63
2022-11-05T18:25:14.601Z,9.00
2022-11-05T18:27:41.284Z,10.83
2022-11-05T18:30:09.333Z,9.13
2022-11-05T18:32:35.964Z,10.77
2022-11-05T18:35:03.032Z,8.13
2022-11-05T18:37:29.455Z,9.23
2022-11-05T18:39:55.928Z,10.07
2022-11-05T18:42:22.791Z,10.67
2022-11-05T18:44:49.293Z,9.43
2022-11-05T18:47:15.758Z,9.37
2022-11-05T18:49:42.339Z,7.80
2022-11-05T18:52:08.812Z,9.17
2022-11-05T18:54:35.508Z,8.87
2022-11-05T18:57:02.648Z,9.97
2022-11-05T18:59:39.063Z,10.63
2022-11-05T19:02:07.873Z,8.93
2022-11-05T19:04:37.454Z,7.93
2022-11-05T19:07:05.964Z,10.83
2022-11-05T19:09:37.407Z,7.43
2022-11-05T19:12:05.745Z,9.37
2022-11-05T19:14:32.974Z,6.33
2022-11-05T19:17:00.796Z,8.10
2022-11-05T19:19:28.127Z,8.00
2022-11-05T19:21:54.684Z,8.80
2022-11-05T19:24:21.152Z,9.83
2022-11-05T19:26:48.021Z,8.77
2022-11-05T19:29:14.566Z,7.43
2022-11-05T19:31:41.053Z,9.13
2022-11-05T19:34:07.614Z,6.60
2022-11-05T19:36:34.652Z,6.83
2022-11-05T19:39:06.237Z,7.53
2022-11-05T19:41:33.049Z,7.20
2022-11-05T19:44:01.428Z,7.77
2022-11-05T19:46:28.953Z,8.00
2022-11-05T19:48:56.205Z,8.70
2022-11-05T19:51:25.488Z,8.97
2022-11-05T19:53:52.980Z,7.17
2022-11-05T19:56:22.045Z,11.17
2022-11-05T19:58:49.128Z,9.20
2022-11-05T20:01:17.046Z,8.90
2022-11-05T20:03:44.018Z,8.23
2022-11-05T20:06:13.037Z,9.13
2022-11-05T20:09:06.671Z,9.97
2022-11-05T20:11:28.228Z,12.63
2022-11-05T20:13:54.724Z,9.90
2022-11-05T20:16:25.924Z,12.53
2022-11-05T20:18:52.507Z,12.40
2022-11-05T20:21:19.365Z,11.80
2022-11-05T20:23:47.153Z,9.80
2022-11-05T20:26:14.610Z,10.03
2022-11-05T20:28:42.835Z,7.53
2022-11-05T20:31:13.040Z,7.97
2022-11-05T20:33:40.744Z,9.57
2022-11-05T20:36:10.087Z,8.07
2022-11-05T20:38:36.543Z,7.90
2022-11-05T20:41:08.104Z,7.70
2022-11-05T20:43:35.576Z,8.03
2022-11-05T20:46:03.065Z,9.90
2022-11-05T20:48:34.378Z,6.10
2022-11-05T20:51:06.571Z,7.30
2022-11-05T20:53:33.319Z,8.33
2022-11-05T20:56:02.517Z,8.13
2022-11-05T20:58:33.384Z,8.87
2022-11-05T21:01:00.162Z,8.27
2022-11-05T21:03:27.968Z,10.03
2022-11-05T21:05:59.778Z,6.70
2022-11-05T21:08:27.949Z,9.73
2022-11-05T21:10:55.965Z,8.63
2022-11-05T21:13:23.443Z,9.07
2022-11-05T21:15:52.340Z,7.07
2022-11-05T21:18:20.648Z,5.93
2022-11-05T21:20:47.818Z,6.23
2022-11-05T21:23:15.385Z,7.80
2022-11-05T21:25:43.254Z,7.70
2022-11-05T21:28:11.546Z,5.83
2022-11-05T21:30:41.596Z,8.47
2022-11-05T21:33:08.969Z,7.30
2022-11-05T21:35:39.821Z,6.47
2022-11-05T21:38:06.778Z,7.03
2022-11-05T21:40:33.419Z,7.57
2022-11-05T21:43:00.108Z,6.53
2022-11-05T21:45:28.116Z,8.83
2022-11-05T21:47:54.706Z,9.73
2022-11-05T21:50:41.247Z,7.87
2022-11-05T21:53:32.222Z,8.83
2022-11-05T21:56:18.327Z,6.33
2022-11-05T21:59:03.428Z,6.47
2022-11-05T22:01:30.096Z,5.73
2022-11-05T22:04:01.876Z,5.50
2022-11-05T22:06:32.601Z,7.67
2022-11-05T22:08:59.419Z,6.77
2022-11-05T22:11:26.047Z,5.60
2022-11-05T22:13:53.444Z,6.47
2022-11-05T22:16:19.952Z,6.73
2022-11-05T22:18:46.389Z,6.40
2022-11-05T22:21:19.126Z,7.57
2022-11-05T22:23:45.780Z,9.17
2022-11-05T22:26:12.457Z,9.00
2022-11-05T22:28:38.987Z,7.73
2022-11-05T22:31:12.372Z,6.83
2022-11-05T22:33:38.889Z,7.33
2022-11-05T22:36:05.779Z,7.63
2022-11-05T22:38:32.301Z,7.60
2022-11-05T22:40:59.454Z,6.40
2022-11-05T22:43:26.016Z,5.67
2022-11-05T22:45:52.487Z,7.27
2022-11-05T22:48:18.901Z,6.33
2022-11-05T22:50:45.396Z,6.57
2022-11-05T22:53:11.852Z,7.77
2022-11-05T22:55:41.069Z,5.90
2022-11-05T22:58:07.553Z,4.17
2022-11-05T23:00:36.929Z,7.63
2022-11-05T23:03:03.924Z,8.37
2022-11-05T23:05:30.681Z,8.00
2022-11-05T23:08:16.032Z,6.97
2022-11-05T23:11:04.263Z,4.40
2022-11-05T23:13:30.874Z,7.30
2022-11-05T23:16:15.713Z,8.57
2022-11-05T23:19:01.031Z,8.17
2022-11-05T23:21:46.131Z,8.27
2022-11-05T23:24:13.460Z,8.00
2022-11-05T23:26:52.599Z,5.83
2022-11-05T23:29:21.909Z,6.33
2022-11-05T23:32:07.188Z,7.83
2022-11-05T23:34:33.708Z,7.40
2022-11-05T23:37:19.099Z,7.50
2022-11-05T23:39:45.635Z,8.00
2022-11-05T23:42:31.448Z,5.83
2022-11-05T23:45:16.689Z,5.53
2022-11-05T23:48:01.600Z,6.30
2022-11-05T23:50:29.392Z,4.60
2022-11-05T23:52:56.200Z,8.27
2022-11-05T23:55:23.461Z,5.77
2022-11-05T23:57:50.310Z,8.87
